»·PEaware :: N450HB KVNY-KNTD

N450HB :: KVNY-KNTD

FLIGHT INFORMATION

Flight Status: Arrived
Operator: Privately registered:
United States
More flights under this callsign
Pilot: Mark P. (13279)
Aircraft: Unknown
(T210)
More flights by this aircraft type
Origin: KVNY Van Nuys
United States
Destination: KNTD Point Mugu NAS
United States
More flights between these airports :: More routes between these airports
Route: CANOG2 FIM
File this flight plan on PilotEdge
Remarks:
Altitude:
(Current/Filed)
6,000ft
Speed:
(Current/Filed)
150kts
Departed: 09-Jan-18 12:00 PM
Arrived: 09-Jan-18 12:33 PM
Distance/Time
Traveled:
31nm/0:32
Distance/Time
To Go:
Arrived

Flight Plot

Page will automatically refresh every two minutes.

Flight plan parsing failed; only flown route is shown


Map Options




Map Legend


Flown Route
Filed Route
Departure Airport
Arrival Airport
Navaid (VOR, NDB)
Fix

Horizontal Profiles

Position Reports

Time Latitude Longitude Heading Altitude Ground
Speed
09-Jan-18 11:45 34.205881 -118.491681 178 805ft 0kts
09-Jan-18 11:46 34.205881 -118.491681 178 805ft 0kts
09-Jan-18 11:47 34.205881 -118.491681 178 805ft 0kts
09-Jan-18 11:48 34.205881 -118.491681 178 805ft 0kts
09-Jan-18 11:49 34.205881 -118.491681 178 805ft 0kts
09-Jan-18 11:50 34.205881 -118.491681 178 805ft 0kts
09-Jan-18 11:51 34.205881 -118.491681 178 805ft 0kts
09-Jan-18 11:52 34.205881 -118.491681 178 805ft 0kts
09-Jan-18 11:53 34.205881 -118.491681 178 805ft 0kts
09-Jan-18 11:54 34.205881 -118.491681 178 805ft 0kts
09-Jan-18 11:55 34.205881 -118.491681 178 805ft 0kts
09-Jan-18 11:56 34.205871 -118.491346 22 805ft 8kts
09-Jan-18 11:57 34.210140 -118.491574 358 805ft 22kts
09-Jan-18 11:58 34.213711 -118.491904 356 805ft 18kts
09-Jan-18 11:59 34.218742 -118.492376 349 805ft 10kts
09-Jan-18 12:00 34.219197 -118.492237 138 805ft 0kts
09-Jan-18 12:01 34.219197 -118.492237 138 805ft 0kts
09-Jan-18 12:02 34.219197 -118.492237 138 805ft 0kts
09-Jan-18 12:03 34.219197 -118.492237 138 805ft 0kts
09-Jan-18 12:04 34.219197 -118.492237 138 805ft 0kts
09-Jan-18 12:05 34.219133 -118.492177 144 805ft 2kts
09-Jan-18 12:06 34.214388 -118.490859 178 828ft 61kts
09-Jan-18 12:07 34.196665 -118.489501 176 1314ft 94kts
09-Jan-18 12:08 34.172416 -118.498771 222 2111ft 107kts
09-Jan-18 12:09 34.153967 -118.526324 225 2910ft 104kts
09-Jan-18 12:10 34.136536 -118.551603 225 3649ft 103kts
09-Jan-18 12:11 34.135773 -118.583652 282 4051ft 138kts
09-Jan-18 12:12 34.148077 -118.632201 282 3989ft 167kts
09-Jan-18 12:13 34.159499 -118.677604 281 3978ft 173kts
09-Jan-18 12:14 34.172622 -118.729592 280 3965ft 171kts
09-Jan-18 12:15 34.185974 -118.782796 282 3957ft 174kts
09-Jan-18 12:16 34.199382 -118.836466 281 3951ft 168kts
09-Jan-18 12:17 34.211276 -118.882884 280 3948ft 151kts
09-Jan-18 12:18 34.222612 -118.926352 281 3988ft 141kts
09-Jan-18 12:19 34.233879 -118.968860 283 3999ft 139kts
09-Jan-18 12:20 34.245028 -119.010638 280 3997ft 135kts
09-Jan-18 12:21 34.255992 -119.052689 285 4004ft 137kts
09-Jan-18 12:22 34.266156 -119.091630 281 3998ft 134kts
09-Jan-18 12:23 34.276530 -119.131747 283 3998ft 137kts
09-Jan-18 12:24 34.288253 -119.173811 304 3989ft 136kts
09-Jan-18 12:25 34.315762 -119.160047 79 3992ft 136kts
09-Jan-18 12:26 34.324385 -119.119246 81 3987ft 134kts
09-Jan-18 12:27 34.332875 -119.079023 82 4000ft 134kts
09-Jan-18 12:28 34.341760 -119.037439 82 4007ft 135kts
09-Jan-18 12:29 34.347965 -118.996119 121 3988ft 125kts
09-Jan-18 12:30 34.320128 -118.974253 153 4000ft 121kts
09-Jan-18 12:31 34.290574 -118.955451 169 3998ft 122kts
09-Jan-18 12:32 34.258749 -118.965299 187 1907ft 109kts
09-Jan-18 12:33 34.237380 -118.980429 212 2266ft 74kts
09-Jan-18 12:34 34.217647 -119.003141 213 2024ft 97kts
09-Jan-18 12:35 34.198247 -119.025675 217 1920ft 112kts
09-Jan-18 12:36 34.175499 -119.052487 216 2044ft 111kts
09-Jan-18 12:37 34.148678 -119.083920 217 869ft 128kts
09-Jan-18 12:38 34.129648 -119.110322 208 97ft 72kts
09-Jan-18 12:39 34.122642 -119.116687 117 17ft 3kts
09-Jan-18 12:40 34.124085 -119.114162 44 17ft 18kts
09-Jan-18 12:41 34.127275 -119.110493 45 17ft 16kts
09-Jan-18 12:42 34.129491 -119.107822 248 17ft 0kts
09-Jan-18 12:43 34.129491 -119.107822 248 17ft 0kts
09-Jan-18 12:44 34.129491 -119.107822 248 17ft 0kts
09-Jan-18 12:45 34.129491 -119.107822 248 17ft 0kts
09-Jan-18 12:46 34.129491 -119.107822 248 17ft 0kts
09-Jan-18 12:47 34.129491 -119.107822 248 17ft 0kts
09-Jan-18 12:48 34.129491 -119.107822 248 17ft 0kts
09-Jan-18 12:49 34.129491 -119.107822 248 17ft 0kts
09-Jan-18 12:50 34.129491 -119.107822 248 17ft 0kts
09-Jan-18 12:51 34.129491 -119.107822 248 17ft 0kts

Navigation Log

Ident Type
Flight plan parsing failed, navigation log unavailable